Latest Coastal Weather Observations for Mandora

IDW60701

Issued at 8:45 am WST Thursday 17 April 2014 (issued every 10 minutes, with the page automatically refreshed every 10 minutes)

About coastal observations | Map of coastal stations | Coastal observations for WA | Marine services | Other Formats
Station Details ID: 004019 Name: MANDORA Lat: -19.74 Lon: 120.84 Height: 7.5 m
Data from the previous 72 hours. | See also: Recent months at Mandora
Date/Time
WST
Temp

°C
Wind Pressure Rain
since 9am
mm
Weather Cloud Vis
km
Sea
Height
m
Swell
Dir
 
Speed
knots
Gust
knots
hPa Trend Height
m
Period
s
Dir
17/08:30am 29.4 E 9 15 1014.7 - 0.0 - - - - - - -
17/08:00am 27.0 ESE 9 15 1014.5 - 0.0 - - - - - - -
17/07:30am 23.8 ESE 8 12 1014.3 - 0.0 - - - - - - -
17/07:00am 21.2 SE 6 9 1014.1 - 0.0 - - - - - - -
17/06:30am 19.4 SE 7 9 1013.9 - 0.0 - - - - - - -
17/06:00am 18.9 SE 7 8 1013.5 - 0.0 - - - - - - -
17/05:30am 19.5 SE 7 9 1013.4 - 0.0 - - - - - - -
17/05:00am 19.5 SE 7 9 1013.2 - 0.0 - - - - - - -
17/04:30am 19.5 SE 6 7 1012.9 - 0.0 - - - - - - -
17/04:00am 20.1 SE 6 8 1012.7 - 0.0 - - - - - - -
17/03:30am 20.3 SE 6 8 1012.5 - 0.0 - - - - - - -
17/03:00am 20.5 SE 6 8 1012.4 - 0.0 - - - - - - -
17/02:30am 20.3 SE 6 7 1012.4 - 0.0 - - - - - - -
17/02:00am 20.4 SSE 6 7 1012.5 - 0.0 - - - - - - -
17/01:30am 20.5 SSE 5 7 1012.5 - 0.0 - - - - - - -
17/01:00am 20.5 SSE 5 7 1012.5 - 0.0 - - - - - - -
17/12:30am 21.1 SSE 5 7 1012.8 - 0.0 - - - - - - -
17/12:00am 22.2 SSE 7 9 1012.9 - 0.0 - - - - - - -
 
Date/Time
WST
Temp

°C
Wind Pressure Rain
since 9am
mm
Weather Cloud Vis
km
Sea
Height
m
Swell
Dir
 
Speed
knots
Gust
knots
hPa Trend Height
m
Period
s
Dir
16/11:30pm 22.5 SSE 6 7 1013.0 - 0.0 - - - - - - -
16/11:00pm 22.7 SSE 6 7 1013.1 - 0.0 - - - - - - -
16/10:30pm 23.1 SSE 5 8 1013.2 - 0.0 - - - - - - -
16/10:00pm 23.4 SE 5 7 1013.2 - 0.0 - - - - - - -
16/09:30pm 24.1 SSE 6 8 1013.1 - 0.0 - - - - - - -
16/09:00pm 22.1 SSE 4 6 1012.9 - 0.0 - - - - - - -
16/08:30pm 24.2 E 5 7 1012.7 - 0.0 - - - - - - -
16/08:00pm 23.9 SW 2 4 1012.5 - 0.0 - - - - - - -
16/07:30pm 24.1 SW 5 7 1012.2 - 0.0 - - - - - - -
16/07:00pm 24.3 SW 5 7 1011.9 - 0.0 - - - - - - -
16/06:30pm 25.9 CALM 0 0 1011.5 - 0.0 - - - - - - -
16/06:00pm 27.5 SW 3 5 1011.1 - 0.0 - - - - - - -
16/05:30pm 30.0 WNW 5 7 1010.8 - 0.0 - - - - - - -
16/05:00pm 31.1 NW 7 12 1010.5 - 0.0 - - - - - - -
16/04:30pm 33.0 NNW 7 11 1010.4 - 0.0 - - - - - - -
16/04:00pm 35.5 E 8 28 1010.2 - 0.0 - - - - - - -
16/03:30pm 35.6 E 8 17 1010.2 - 0.0 - - - - - - -
16/03:00pm 36.1 E 8 14 1010.2 - 0.0 - - - - - - -
16/02:30pm 35.8 E 8 15 1010.5 - 0.0 - - - - - - -
16/02:00pm 35.6 ENE 10 16 1010.6 - 0.0 - - - - - - -
16/01:30pm 35.7 ENE 11 16 1011.0 - 0.0 - - - - - - -
16/01:00pm 35.6 ESE 9 17 1011.3 - 0.0 - - - - - - -
16/12:30pm 35.2 ESE 10 19 1011.8 - 0.0 - - - - - - -
16/12:00pm 35.1 E 10 19 1012.4 - 0.0 - - - - - - -
16/11:30am 34.7 ESE 11 17 1013.0 - 0.0 - - - - - - -
16/11:00am 34.0 ESE 11 19 1013.7 - 0.0 - - - - - - -
16/10:30am 33.6 E 11 16 1014.2 - 0.0 - - - - - - -
16/10:00am 33.5 E 11 19 1014.6 - 0.0 - - - - - - -
16/09:30am 32.0 E 12 19 1014.7 - 0.0 - - - - - - -
16/09:00am 30.5 ESE 14 19 1014.7 - 0.0 - - - - - - -
16/08:30am 29.1 ESE 13 20 1014.7 - 0.0 - - - - - - -
16/08:00am 26.8 ESE 11 16 1014.8 - 0.0 - - - - - - -
16/07:30am 23.5 ESE 8 13 1014.7 - 0.0 - - - - - - -
16/07:00am 21.5 SE 8 11 1014.6 - 0.0 - - - - - - -
16/06:30am 19.9 SE 7 11 1014.3 - 0.0 - - - - - - -
16/06:00am 19.6 SE 7 10 1014.1 - 0.0 - - - - - - -
16/05:30am 19.5 SE 7 9 1014.0 - 0.0 - - - - - - -
16/05:00am 20.2 SE 7 10 1013.8 - 0.0 - - - - - - -
16/04:30am 21.2 SE 8 11 1013.6 - 0.0 - - - - - - -
16/04:00am 21.7 SE 8 12 1013.4 - 0.0 - - - - - - -
16/03:30am 21.7 SE 7 11 1013.5 - 0.0 - - - - - - -
16/03:00am 21.3 SE 7 9 1013.4 - 0.0 - - - - - - -
16/02:30am 21.4 SE 7 9 1013.6 - 0.0 - - - - - - -
16/02:00am 21.7 SE 6 8 1013.6 - 0.0 - - - - - - -
16/01:30am 20.5 SE 5 7 1013.8 - 0.0 - - - - - - -
16/01:00am 20.7 SSE 5 7 1014.0 - 0.0 - - - - - - -
16/12:30am 20.7 SSE 7 8 1014.0 - 0.0 - - - - - - -
16/12:00am 21.0 SSE 7 9 1013.9 - 0.0 - - - - - - -
 
Date/Time
WST
Temp

°C
Wind Pressure Rain
since 9am
mm
Weather Cloud Vis
km
Sea
Height
m
Swell
Dir
 
Speed
knots
Gust
knots
hPa Trend Height
m
Period
s
Dir
15/11:30pm 21.3 S 7 11 1014.0 - 0.0 - - - - - - -
15/11:00pm 22.1 SSE 8 10 1014.1 - 0.0 - - - - - - -
15/10:30pm 22.5 S 7 10 1014.2 - 0.0 - - - - - - -
15/10:00pm 22.9 S 8 9 1014.3 - 0.0 - - - - - - -
15/09:30pm 23.0 S 7 9 1014.3 - 0.0 - - - - - - -
15/09:00pm 23.5 SSE 7 8 1013.9 - 0.0 - - - - - - -
15/08:30pm 23.5 SSE 5 6 1014.0 - 0.0 - - - - - - -
15/08:00pm 23.8 SSE 5 6 1013.7 - 0.0 - - - - - - -
15/07:30pm 24.6 SSE 6 7 1013.2 - 0.0 - - - - - - -
15/07:00pm 25.7 SSE 5 7 1012.8 - 0.0 - - - - - - -
15/06:30pm 26.8 SE 5 6 1012.4 - 0.0 - - - - - - -
15/06:00pm 29.1 SE 5 6 1011.9 - 0.0 - - - - - - -
15/05:30pm 31.9 SE 8 13 1011.7 - 0.0 - - - - - - -
15/05:00pm 33.3 SE 10 14 1011.3 - 0.0 - - - - - - -
15/04:30pm 34.1 SE 11 18 1011.1 - 0.0 - - - - - - -
15/04:00pm 34.4 SE 11 19 1010.9 - 0.0 - - - - - - -
15/03:30pm 35.0 ESE 11 19 1011.0 - 0.0 - - - - - - -
15/03:00pm 34.9 ESE 11 18 1011.0 - 0.0 - - - - - - -
15/02:30pm 35.0 SE 13 21 1011.1 - 0.0 - - - - - - -
15/02:00pm 34.5 ESE 13 19 1011.2 - 0.0 - - - - - - -
15/01:30pm 35.1 SE 12 21 1011.5 - 0.0 - - - - - - -
15/01:00pm 34.6 SE 13 22 1011.9 - 0.0 - - - - - - -
15/12:30pm 34.0 SE 12 20 1012.4 - 0.0 - - - - - - -
15/12:00pm 33.8 SE 13 21 1012.9 - 0.0 - - - - - - -
15/11:30am 33.4 E 12 22 1013.5 - 0.0 - - - - - - -
15/11:00am 32.6 ESE 12 19 1014.1 - 0.0 - - - - - - -
15/10:30am 32.3 ESE 14 23 1014.8 - 0.0 - - - - - - -
15/10:00am 31.9 ESE 13 20 1015.2 - 0.0 - - - - - - -
15/09:30am 31.2 ESE 14 21 1015.4 - 0.0 - - - - - - -
15/09:00am 30.2 E 11 17 1015.2 - 0.0 - - - - - - -
15/08:30am 28.5 E 9 18 1015.3 - 0.0 - - - - - - -
15/08:00am 26.2 ESE 9 16 1015.4 - 0.0 - - - - - - -
15/07:30am 22.6 SE 8 11 1015.2 - 0.0 - - - - - - -
15/07:00am 19.1 ESE 5 6 1015.0 - 0.0 - - - - - - -
15/06:30am 16.1 ESE 5 6 1014.7 - 0.0 - - - - - - -
15/06:00am 16.4 ESE 5 6 1014.1 - 0.0 - - - - - - -
15/05:30am 17.4 SE 5 7 1014.0 - 0.0 - - - - - - -
15/05:00am 18.1 SE 4 5 1013.8 - 0.0 - - - - - - -
15/04:30am 19.3 SE 5 7 1013.5 - 0.0 - - - - - - -
15/04:00am 20.1 SE 6 8 1013.4 - 0.0 - - - - - - -
15/03:30am 20.9 SE 6 9 1013.3 - 0.0 - - - - - - -
15/03:00am 21.1 SE 6 9 1013.2 - 0.0 - - - - - - -
15/02:30am 21.8 SE 7 11 1013.4 - 0.0 - - - - - - -
15/02:00am 22.5 SE 7 10 1013.4 - 0.0 - - - - - - -
15/01:30am 22.5 SE 7 10 1013.6 - 0.0 - - - - - - -
15/01:00am 22.9 SE 7 9 1013.7 - 0.0 - - - - - - -
15/12:30am 24.0 SE 7 10 1013.6 - 0.0 - - - - - - -
15/12:00am 22.8 SSE 6 8 1013.5 - 0.0 - - - - - - -
 
Date/Time
WST
Temp

°C
Wind Pressure Rain
since 9am
mm
Weather Cloud Vis
km
Sea
Height
m
Swell
Dir
 
Speed
knots
Gust
knots
hPa Trend Height
m
Period
s
Dir
14/11:30pm 22.7 SSE 8 10 1013.4 - 0.0 - - - - - - -
14/11:00pm 21.9 SSE 8 10 1013.4 - 0.0 - - - - - - -
14/10:30pm 22.0 S 8 10 1013.4 - 0.0 - - - - - - -
14/10:00pm 22.9 S 8 9 1013.4 - 0.0 - - - - - - -
14/09:30pm 23.7 SSE 8 10 1013.3 - 0.0 - - - - - - -
14/09:00pm 24.1 S 7 8 1012.9 - 0.0 - - - - - - -
14/08:30pm 24.9 SSE 7 9 1012.7 - 0.0 - - - - - - -
14/08:00pm 25.4 SSE 7 8 1012.5 - 0.0 - - - - - - -
14/07:30pm 27.0 SSE 6 8 1012.1 - 0.0 - - - - - - -
14/07:00pm 26.8 SSE 6 7 1011.6 - 0.0 - - - - - - -
14/06:30pm 28.1 SSE 5 6 1011.3 - 0.0 - - - - - - -
14/06:00pm 29.8 SE 5 7 1010.8 - 0.0 - - - - - - -
14/05:30pm 32.4 SE 7 11 1010.5 - 0.0 - - - - - - -
14/05:00pm 34.1 SE 9 14 1010.2 - 0.0 - - - - - - -
14/04:30pm 34.8 SE 11 17 1010.0 - 0.0 - - - - - - -
14/04:00pm 35.3 SE 11 17 1009.9 - 0.0 - - - - - - -
14/03:30pm 35.8 SE 10 18 1009.8 - 0.0 - - - - - - -
14/03:00pm 36.3 ESE 9 16 1009.7 - 0.0 - - - - - - -
14/02:30pm 35.7 ESE 10 17 1010.0 - 0.0 - - - - - - -
14/02:00pm 35.8 SSE 12 18 1010.0 - 0.0 - - - - - - -
14/01:30pm 35.2 SE 13 21 1010.5 - 0.0 - - - - - - -
14/01:00pm 34.8 ESE 13 20 1010.8 - 0.0 - - - - - - -
14/12:30pm 34.8 ESE 13 23 1011.2 - 0.0 - - - - - - -
14/12:00pm 34.3 SE 14 23 1011.8 - 0.0 - - - - - - -
14/11:30am 33.9 SE 13 20 1012.3 - 0.0 - - - - - - -
14/11:00am 33.7 ESE 13 22 1012.8 - 0.0 - - - - - - -
14/10:30am 32.6 E 12 21 1013.1 - 0.0 - - - - - - -
14/10:00am 32.8 E 12 19 1013.4 - 0.0 - - - - - - -
14/09:30am 31.5 ESE 13 21 1013.8 - 0.0 - - - - - - -
14/09:00am 30.7 ESE 11 19 1013.9 - 0.0 - - - - - - -

Other Formats:

Comma delimited format used in spreadsheet applications
http://www.bom.gov.au/fwo/IDW60701/IDW60701.94200.axf

JavaScript Object Notation format (JSON) in row-major order
http://www.bom.gov.au/fwo/IDW60701/IDW60701.94200.json